Time;durP1;ratioP1;P1;durP2;ratioP2;P2;SDS_P1;SDS_P2;PMS_P1;PMS_P2;Temp;Humidity;BMP_temperature;BMP_pressure;BME280_temperature;BME280_humidity;BME280_pressure;Samples;Min_cycle;Max_cycle;Signal;HPM_P1;HPM_P2
2022/11/30 00:04:08;;;;;;;5.07;4.68;;;;;;;19.66;52.78;97265.47;10539987;28;20411;-53
2022/11/30 00:09:27;;;;;;;5.35;4.40;;;;;;;19.65;52.79;97263.09;10539888;28;20056;-52
2022/11/30 00:14:47;;;;;;;4.97;4.43;;;;;;;19.63;52.58;97255.28;10529130;28;20055;-52
2022/11/30 00:20:07;;;;;;;5.47;4.38;;;;;;;19.63;52.55;97257.19;10537604;28;20052;-54
2022/11/30 00:25:27;;;;;;;5.60;4.38;;;;;;;19.61;52.37;97260.22;10539746;28;20109;-51
2022/11/30 00:30:55;;;;;;;4.40;4.00;;;;;;;19.60;52.51;97247.81;10539415;28;20410;-51
2022/11/30 00:36:16;;;;;;;;;;;;;;;19.59;52.28;97248.13;10539853;28;20188;-53
2022/11/30 00:41:36;;;;;;;4.97;4.40;;;;;;;19.55;52.36;97254.16;10526288;28;20341;-52
2022/11/30 00:46:55;;;;;;;6.05;4.80;;;;;;;19.55;52.33;97251.44;10538686;28;20047;-52
2022/11/30 00:52:15;;;;;;;4.30;3.90;;;;;;;19.53;52.30;97252.88;10538598;28;20040;-52
2022/11/30 00:57:34;;;;;;;4.75;4.25;;;;;;;19.52;52.44;97262.06;10536207;28;20044;-53
2022/11/30 01:02:58;;;;;;;4.65;4.25;;;;;;;19.51;52.42;97272.09;10525503;28;20465;-54
2022/11/30 01:08:18;;;;;;;4.70;4.20;;;;;;;19.49;52.39;97274.31;10538326;28;20048;-52
2022/11/30 01:13:37;;;;;;;4.60;4.20;;;;;;;19.48;52.32;97267.34;10537848;28;20063;-52
2022/11/30 01:18:56;;;;;;;4.85;4.30;;;;;;;19.47;52.25;97273.81;10534842;28;20044;-52
2022/11/30 01:24:16;;;;;;;5.03;4.25;;;;;;;19.46;52.37;97274.91;10537798;28;20411;-52
2022/11/30 01:29:35;;;;;;;4.75;4.35;;;;;;;19.44;52.33;97282.53;10537720;28;20150;-52
2022/11/30 01:34:54;;;;;;;5.18;4.68;;;;;;;19.43;52.30;97282.88;10537468;28;20052;-51
2022/11/30 01:40:14;;;;;;;4.70;4.28;;;;;;;19.41;52.26;97269.69;10551249;28;20445;-51
2022/11/30 01:45:33;;;;;;;4.38;3.97;;;;;;;19.40;52.30;97275.38;10537104;28;20066;-52
2022/11/30 01:50:52;;;;;;;4.05;3.65;;;;;;;19.38;52.18;97278.38;10523714;28;20113;-53
2022/11/30 01:56:12;;;;;;;4.30;3.90;;;;;;;19.37;52.31;97279.50;10522331;28;20998;-52
2022/11/30 02:01:31;;;;;;;4.10;3.75;;;;;;;19.35;52.32;97279.81;10506679;28;20064;-51
2022/11/30 02:06:51;;;;;;;4.15;3.75;;;;;;;19.34;52.23;97274.72;10493923;28;20045;-52
2022/11/30 02:12:20;;;;;;;4.78;4.18;;;;;;;19.32;52.11;97282.34;10495120;28;20056;-52
2022/11/30 02:18:08;;;;;;;4.40;4.00;;;;;;;19.31;52.25;97288.88;10502256;28;20059;-52
2022/11/30 02:23:40;;;;;;;4.63;4.13;;;;;;;19.30;52.17;97298.06;10501155;28;20060;-52
2022/11/30 02:29:13;;;;;;;3.83;3.53;;;;;;;19.28;52.06;97295.66;10495053;28;20052;-52
2022/11/30 02:34:34;;;;;;;3.97;3.63;;;;;;;19.27;52.26;97293.28;10501075;28;20064;-52
2022/11/30 02:39:53;;;;;;;4.47;4.07;;;;;;;19.27;52.13;97296.00;10500835;28;20057;-52
2022/11/30 02:45:13;;;;;;;4.57;3.97;;;;;;;19.25;52.14;97290.09;10499204;28;20051;-51
2022/11/30 02:50:40;;;;;;;3.80;3.50;;;;;;;19.23;52.09;97279.59;10500581;28;20458;-52
2022/11/30 02:55:59;;;;;;;3.70;3.38;;;;;;;19.21;52.08;97287.22;10500142;28;20059;-52
2022/11/30 03:01:20;;;;;;;4.10;3.70;;;;;;;19.20;52.03;97285.63;10528603;28;20507;-51
2022/11/30 03:06:40;;;;;;;4.32;3.92;;;;;;;19.19;52.07;97281.34;10541648;28;20498;-53
2022/11/30 03:11:59;;;;;;;3.95;3.63;;;;;;;19.16;52.10;97285.44;10542546;28;20055;-51
2022/11/30 03:17:19;;;;;;;4.20;3.80;;;;;;;19.16;52.02;97292.75;10540225;28;20044;-53
2022/11/30 03:22:38;;;;;;;4.72;3.92;;;;;;;19.14;51.93;97295.75;10540126;28;20142;-52
2022/11/30 03:27:59;;;;;;;4.03;3.63;;;;;;;19.13;51.85;97293.34;10541461;28;20093;-52
2022/11/30 03:33:19;;;;;;;3.65;3.35;;;;;;;19.11;51.87;97304.50;10541336;28;20048;-51
2022/11/30 03:38:38;;;;;;;3.92;3.53;;;;;;;19.10;51.94;97300.19;10547911;28;20055;-52
2022/11/30 03:43:58;;;;;;;3.70;3.40;;;;;;;19.09;51.87;97304.00;10541285;28;20067;-51
2022/11/30 03:49:17;;;;;;;4.43;3.47;;;;;;;19.07;51.95;97311.63;10554273;28;20040;-52
2022/11/30 03:54:36;;;;;;;4.13;3.72;;;;;;;19.06;51.98;97303.81;10540012;28;20499;-52
2022/11/30 03:59:56;;;;;;;3.92;3.58;;;;;;;19.05;51.91;97304.91;10540084;28;20055;-52
2022/11/30 04:05:16;;;;;;;3.72;3.40;;;;;;;19.03;51.89;97305.22;10540132;28;20097;-52
2022/11/30 04:10:35;;;;;;;3.75;3.45;;;;;;;19.02;51.90;97300.94;10540346;28;20052;-52
2022/11/30 04:15:55;;;;;;;3.90;3.50;;;;;;;19.01;51.87;97304.72;10545485;28;20043;-52
2022/11/30 04:21:14;;;;;;;4.25;3.72;;;;;;;19.00;51.86;97305.84;10538841;28;20055;-52
2022/11/30 04:26:34;;;;;;;3.63;3.30;;;;;;;18.98;51.81;97308.06;10539143;28;20048;-52
2022/11/30 04:31:53;;;;;;;3.65;3.35;;;;;;;18.97;51.83;97311.84;10538550;28;20101;-51
2022/11/30 04:37:13;;;;;;;3.60;3.30;;;;;;;18.95;51.73;97325.66;10538907;28;20059;-52
2022/11/30 04:42:32;;;;;;;3.70;3.40;;;;;;;18.95;51.75;97324.84;10552247;28;20047;-52
2022/11/30 04:47:51;;;;;;;3.90;3.50;;;;;;;18.93;51.73;97324.38;10538826;28;20395;-52
2022/11/30 04:53:11;;;;;;;3.38;3.08;;;;;;;18.90;51.86;97325.78;10552050;28;21254;-51
2022/11/30 04:58:30;;;;;;;3.70;3.40;;;;;;;18.91;51.68;97329.28;10537722;28;20052;-51
2022/11/30 05:03:49;;;;;;;3.72;3.42;;;;;;;18.89;51.73;97326.09;10538176;28;20060;-51
2022/11/30 05:09:09;;;;;;;3.95;3.63;;;;;;;18.88;51.96;97330.69;10538286;28;20044;-53
2022/11/30 05:14:28;;;;;;;3.55;3.25;;;;;;;18.88;51.99;97330.69;10551760;28;20058;-52
2022/11/30 05:19:48;;;;;;;4.05;3.50;;;;;;;18.87;52.15;97334.47;10548230;28;20055;-53
2022/11/30 05:25:08;;;;;;;3.78;3.47;;;;;;;18.87;52.06;97328.28;10551248;28;20047;-53
2022/11/30 05:30:28;;;;;;;4.00;3.60;;;;;;;18.87;51.99;97339.09;10537864;28;20059;-51
2022/11/30 05:35:47;;;;;;;3.38;3.08;;;;;;;18.87;51.89;97339.88;10536983;28;20059;-52
2022/11/30 05:41:06;;;;;;;3.95;3.55;;;;;;;18.87;51.97;97339.09;10537434;28;20560;-52
2022/11/30 05:46:26;;;;;;;4.90;3.55;;;;;;;18.88;52.06;97346.88;10537490;28;20048;-51
2022/11/30 05:51:45;;;;;;;3.95;3.58;;;;;;;18.88;52.08;97340.69;10542102;28;20048;-52
2022/11/30 05:57:04;;;;;;;3.63;3.33;;;;;;;18.88;52.06;97336.09;10538173;28;20044;-52
2022/11/30 06:02:24;;;;;;;4.00;3.65;;;;;;;18.90;52.11;97343.88;10545689;28;20423;-53
2022/11/30 06:07:43;;;;;;;7.28;3.90;;;;;;;18.91;52.34;97340.88;10534864;28;20513;-52
2022/11/30 06:13:07;;;;;;;11.48;4.05;;;;;;;18.93;52.43;97340.56;10515357;28;20074;-52
2022/11/30 06:18:26;;;;;;;9.80;4.88;;;;;;;18.94;52.59;97345.66;10541003;28;20200;-53
2022/11/30 06:23:46;;;;;;;11.65;4.88;;;;;;;18.95;52.54;97344.56;10557594;28;20040;-53
2022/11/30 06:29:05;;;;;;;12.75;5.30;;;;;;;18.97;52.52;97355.03;10539419;28;20040;-52
2022/11/30 06:34:24;;;;;;;11.38;5.43;;;;;;;18.98;52.62;97359.34;10543650;28;20419;-53
2022/11/30 06:39:44;;;;;;;11.63;5.75;;;;;;;19.00;52.65;97359.84;10542123;28;20052;-52
2022/11/30 06:45:04;;;;;;;9.15;4.90;;;;;;;19.04;52.72;97365.44;10557206;28;20040;-51
2022/11/30 06:50:24;;;;;;;11.85;5.68;;;;;;;19.05;52.50;97372.41;10542968;28;20078;-53
2022/11/30 06:55:44;;;;;;;9.93;5.35;;;;;;;19.06;52.82;97365.94;10543658;28;20048;-53
2022/11/30 07:01:05;;;;;;;12.88;5.55;;;;;;;19.08;52.76;97377.22;10535810;28;20060;-53
2022/11/30 07:06:24;;;;;;;12.05;5.53;;;;;;;19.09;52.70;97379.63;10542930;28;20039;-53
2022/11/30 07:11:44;;;;;;;9.57;5.82;;;;;;;19.11;52.66;97379.28;10542719;28;20059;-53
2022/11/30 07:17:03;;;;;;;11.20;5.45;;;;;;;19.13;52.79;97393.28;10530037;28;20048;-53
2022/11/30 07:22:23;;;;;;;10.02;5.15;;;;;;;19.15;52.71;97400.00;10534196;28;20048;-52
2022/11/30 07:27:42;;;;;;;11.13;5.00;;;;;;;19.16;52.66;97401.56;10551368;28;20032;-51
2022/11/30 07:33:02;;;;;;;9.80;5.38;;;;;;;19.18;52.65;97398.56;10535589;28;20056;-52
2022/11/30 07:38:21;;;;;;;8.30;5.20;;;;;;;19.21;52.90;97403.38;10554754;28;20040;-54
2022/11/30 07:43:40;;;;;;;9.45;5.20;;;;;;;19.22;52.63;97398.75;10540788;28;20059;-53
2022/11/30 07:49:09;;;;;;;8.98;5.05;;;;;;;19.25;52.73;97398.13;10541304;28;20052;-53
2022/11/30 07:54:28;;;;;;;9.63;4.60;;;;;;;19.27;52.62;97401.34;10541359;28;20052;-53
2022/11/30 07:59:48;;;;;;;9.15;5.13;;;;;;;19.28;52.42;97408.34;10525053;28;20056;-53
2022/11/30 08:05:10;;;;;;;9.23;4.57;;;;;;;19.31;52.47;97415.84;10498943;28;20060;-52
2022/11/30 08:10:30;;;;;;;7.47;4.68;;;;;;;19.33;52.13;97419.03;10497952;28;20056;-53
2022/11/30 08:15:50;;;;;;;9.10;4.82;;;;;;;19.35;52.50;97414.09;10498246;28;20048;-52
2022/11/30 08:21:13;;;;;;;7.40;4.78;;;;;;;19.39;52.42;97408.91;10497310;28;20053;-53
2022/11/30 08:26:33;;;;;;;9.23;4.80;;;;;;;19.39;52.57;97409.69;10491540;28;20131;-53
2022/11/30 08:31:53;;;;;;;8.48;4.88;;;;;;;19.41;52.47;97402.06;10510894;28;20511;-53
2022/11/30 08:37:13;;;;;;;6.90;4.72;;;;;;;19.43;52.49;97410.66;10497794;28;20423;-53
2022/11/30 08:42:33;;;;;;;6.72;4.35;;;;;;;19.45;52.51;97421.97;10511118;28;20086;-53
2022/11/30 08:47:53;;;;;;;7.53;4.28;;;;;;;19.48;52.50;97418.66;10489509;28;20060;-53
2022/11/30 08:53:13;;;;;;;6.95;4.25;;;;;;;19.51;52.51;97422.63;10497507;28;20052;-53
2022/11/30 08:58:35;;;;;;;5.45;4.35;;;;;;;19.52;52.37;97427.75;10513806;28;20069;-53
2022/11/30 09:03:58;;;;;;;7.95;4.47;;;;;;;19.54;52.29;97432.81;10539066;28;20063;-53
2022/11/30 09:09:18;;;;;;;5.60;4.32;;;;;;;19.58;52.28;97430.28;10538578;28;20396;-53
2022/11/30 09:14:37;;;;;;;8.68;4.30;;;;;;;19.59;52.09;97434.59;10552058;28;20403;-52
2022/11/30 09:19:56;;;;;;;5.65;4.20;;;;;;;19.61;52.11;97438.59;10538835;28;20077;-53
2022/11/30 09:25:16;;;;;;;6.50;4.03;;;;;;;19.62;52.10;97439.38;10544799;28;20063;-53
2022/11/30 09:30:35;;;;;;;9.73;4.25;;;;;;;19.64;51.87;97439.88;10546229;28;20059;-53
2022/11/30 09:36:00;;;;;;;4.55;3.90;;;;;;;19.65;51.96;97438.78;10546238;28;20054;-52
2022/11/30 09:41:47;;;;;;;7.88;4.07;;;;;;;19.65;52.16;97433.38;10546585;28;20457;-53
2022/11/30 09:47:26;;;;;;;5.68;4.20;;;;;;;19.65;52.14;97434.16;10530732;28;20495;-53
2022/11/30 09:52:48;;;;;;;5.55;3.90;;;;;;;19.65;52.11;97434.16;10541287;28;20056;-53
2022/11/30 09:58:17;;;;;;;8.55;4.45;;;;;;;19.66;52.28;97443.06;10545219;28;20233;-53
2022/11/30 10:03:36;;;;;;;6.13;4.00;;;;;;;19.67;52.34;97436.56;10530646;28;20056;-53
2022/11/30 10:09:15;;;;;;;7.45;3.95;;;;;;;19.67;52.27;97436.56;10530301;28;20052;-53
2022/11/30 10:15:04;;;;;;;6.28;4.07;;;;;;;19.67;52.35;97437.34;10529805;28;20059;-53
2022/11/30 10:20:45;;;;;;;;;;;;;;;19.67;51.97;97431.94;10463528;28;20434;-52
2022/11/30 10:26:11;;;;;;;4.32;3.33;;;;;;;19.68;52.13;97432.72;10529684;28;19989;-53
2022/11/30 10:31:35;;;;;;;6.65;3.75;;;;;;;19.69;52.12;97431.63;10529415;28;20399;-53
2022/11/30 10:37:21;;;;;;;4.78;3.70;;;;;;;19.69;52.04;97418.13;10541833;28;20043;-52
2022/11/30 10:42:45;;;;;;;5.72;3.63;;;;;;;19.69;52.33;97423.53;10539175;28;20052;-53
2022/11/30 10:48:11;;;;;;;6.38;3.78;;;;;;;19.70;52.19;97415.13;10544217;28;20051;-53
2022/11/30 10:53:31;;;;;;;5.80;3.45;;;;;;;19.72;52.09;97412.16;10528329;28;20432;-52
2022/11/30 10:58:59;;;;;;;6.80;3.67;;;;;;;19.74;51.92;97407.22;10543032;28;20060;-53
2022/11/30 11:04:26;;;;;;;4.82;3.63;;;;;;;19.73;52.02;97409.09;10528218;28;20059;-53
2022/11/30 11:09:50;;;;;;;18.92;8.48;;;;;;;19.75;52.20;97416.91;10556440;28;20047;-53
2022/11/30 11:15:30;;;;;;;30.63;16.02;;;;;;;19.78;53.14;97405.50;10556602;28;20035;-52
2022/11/30 11:21:19;;;;;;;28.83;16.30;;;;;;;19.80;53.69;97405.16;10539111;28;20059;-52
2022/11/30 11:26:48;;;;;;;25.38;15.05;;;;;;;19.82;54.24;97401.06;10556007;28;20443;-52
2022/11/30 11:32:29;;;;;;;36.25;16.00;;;;;;;19.84;54.33;97398.03;10526836;28;20101;-53
2022/11/30 11:37:51;;;;;;;22.65;12.82;;;;;;;19.84;54.29;97398.84;10529762;28;20117;-51
2022/11/30 11:43:15;;;;;;;26.45;12.95;;;;;;;19.85;54.80;97405.81;10546309;28;20406;-53
2022/11/30 11:48:38;;;;;;;20.48;11.27;;;;;;;19.86;54.47;97402.03;10530869;28;20059;-53
2022/11/30 11:54:02;;;;;;;20.33;11.13;;;;;;;19.86;54.44;97402.03;10526479;28;20172;-54
2022/11/30 11:59:43;;;;;;;17.50;9.85;;;;;;;19.87;53.95;97398.19;10543107;28;20066;-53
2022/11/30 12:05:10;;;;;;;15.23;8.82;;;;;;;19.88;53.98;97391.69;10540907;28;20055;-53
2022/11/30 12:10:48;;;;;;;17.25;9.18;;;;;;;19.90;53.98;97399.50;10541152;28;20411;-53
2022/11/30 12:16:10;;;;;;;17.00;8.43;;;;;;;19.91;53.58;97406.50;10539008;28;20130;-53
2022/11/30 12:21:43;;;;;;;13.13;7.47;;;;;;;19.91;53.54;97404.56;10540554;28;20048;-53
2022/11/30 12:27:34;;;;;;;15.25;7.40;;;;;;;19.92;53.23;97406.19;10523822;28;20052;-52
2022/11/30 12:33:02;;;;;;;12.77;6.78;;;;;;;19.93;53.15;97405.09;10510811;28;20116;-52
2022/11/30 12:38:38;;;;;;;11.07;6.43;;;;;;;19.94;53.21;97393.16;10539844;28;20048;-53
2022/11/30 12:44:21;;;;;;;12.63;6.07;;;;;;;19.95;53.15;97400.16;10539744;28;20052;-52
2022/11/30 12:50:15;;;;;;;12.23;5.97;;;;;;;19.95;53.00;97383.94;10524213;28;20048;-53
2022/11/30 12:55:55;;;;;;;11.55;6.20;;;;;;;19.97;52.76;97386.31;10508784;28;20056;-53
2022/11/30 13:01:20;;;;;;;11.45;5.82;;;;;;;19.99;52.92;97383.28;10527494;28;20052;-53
2022/11/30 13:06:45;;;;;;;10.60;5.57;;;;;;;19.99;52.91;97389.50;10538625;28;20044;-53
2022/11/30 13:12:10;;;;;;;9.32;5.07;;;;;;;20.00;52.78;97393.00;10552298;28;20048;-53
2022/11/30 13:17:31;;;;;;;11.25;5.57;;;;;;;20.02;52.59;97379.97;10523622;28;20424;-52
2022/11/30 13:23:30;;;;;;;8.10;5.35;;;;;;;20.02;52.61;97390.78;10523189;28;20105;-53
2022/11/30 13:29:00;;;;;;;7.47;5.05;;;;;;;20.03;52.59;97384.25;10519595;28;20113;-52
2022/11/30 13:34:29;;;;;;;9.38;5.13;;;;;;;20.04;52.78;97391.28;10523322;28;20044;-53
2022/11/30 13:39:53;;;;;;;11.00;5.47;;;;;;;20.05;52.69;97385.56;10537670;28;20056;-53
2022/11/30 13:45:13;;;;;;;8.98;5.60;;;;;;;20.07;52.66;97382.53;10522876;28;20113;-53
2022/11/30 13:50:39;;;;;;;9.98;5.45;;;;;;;20.07;52.52;97396.06;10538197;28;20454;-53
2022/11/30 13:56:16;;;;;;;11.27;5.80;;;;;;;20.07;52.38;97394.16;10522766;28;20056;-54
2022/11/30 14:01:36;;;;;;;11.70;5.00;;;;;;;20.07;52.50;97396.88;10537627;28;20056;-53
2022/11/30 14:06:58;;;;;;;8.52;5.50;;;;;;;20.09;52.28;97405.47;10551399;28;20043;-53
2022/11/30 14:12:30;;;;;;;8.68;5.35;;;;;;;20.10;52.34;97400.84;10527918;28;20530;-53
2022/11/30 14:17:50;;;;;;;11.15;5.38;;;;;;;20.12;52.30;97395.91;10541449;28;20070;-53
2022/11/30 14:23:18;;;;;;;10.88;5.97;;;;;;;20.11;52.28;97400.53;10518530;28;20059;-52
2022/11/30 14:28:42;;;;;;;12.05;5.72;;;;;;;20.12;52.24;97399.41;10529774;28;20052;-53
2022/11/30 14:34:17;;;;;;;11.90;5.85;;;;;;;20.13;52.25;97408.31;10542283;28;20044;-53
2022/11/30 14:39:41;;;;;;;11.65;5.78;;;;;;;20.14;51.94;97401.81;10529097;28;20048;-53
2022/11/30 14:45:02;;;;;;;11.38;5.43;;;;;;;20.15;52.11;97403.41;10543998;28;20048;-53
2022/11/30 14:50:24;;;;;;;13.45;5.88;;;;;;;20.16;52.09;97399.59;10528355;28;20391;-53
2022/11/30 14:55:58;;;;;;;11.73;6.28;;;;;;;20.18;52.10;97397.38;10543737;28;20055;-53
2022/11/30 15:01:26;;;;;;;11.73;5.60;;;;;;;20.18;52.02;97402.78;10534427;28;20063;-53
2022/11/30 15:06:46;;;;;;;13.75;5.72;;;;;;;20.19;51.85;97404.38;10527793;28;20044;-53
2022/11/30 15:12:06;;;;;;;11.02;5.97;;;;;;;20.19;52.00;97404.38;10542373;28;20553;-53
2022/11/30 15:17:25;;;;;;;10.43;5.95;;;;;;;20.21;52.06;97412.16;10542811;28;20051;-53
2022/11/30 15:22:45;;;;;;;9.30;5.55;;;;;;;20.22;51.83;97408.38;10542133;28;20052;-53
2022/11/30 15:28:05;;;;;;;10.25;5.80;;;;;;;20.12;47.55;97409.44;10541696;28;20502;-53
2022/11/30 15:33:48;;;;;;;8.82;6.53;;;;;;;20.15;50.20;97408.81;10526601;28;20056;-53
2022/11/30 15:39:17;;;;;;;10.13;6.38;;;;;;;20.18;50.04;97419.00;10541791;28;20059;-52
2022/11/30 15:44:36;;;;;;;10.60;5.80;;;;;;;20.20;49.95;97416.00;10525632;28;20052;-53
2022/11/30 15:49:56;;;;;;;9.02;5.88;;;;;;;20.21;50.29;97418.41;10540985;28;20044;-53
2022/11/30 15:55:42;;;;;;;8.55;5.32;;;;;;;20.22;50.25;97414.56;10541127;28;20060;-52
2022/11/30 16:01:10;;;;;;;8.55;5.65;;;;;;;20.23;50.53;97421.59;10533016;28;20060;-54
2022/11/30 16:06:35;;;;;;;9.70;5.40;;;;;;;20.26;50.26;97425.56;10540809;28;20044;-53
2022/11/30 16:11:57;;;;;;;10.25;5.30;;;;;;;20.25;50.45;97424.78;10537366;28;20047;-51
2022/11/30 16:17:17;;;;;;;12.68;5.45;;;;;;;20.25;50.38;97422.06;10531970;28;20056;-53
2022/11/30 16:22:37;;;;;;;8.88;5.88;;;;;;;20.27;50.43;97425.25;10540054;28;20051;-53
2022/11/30 16:27:56;;;;;;;7.55;5.53;;;;;;;20.28;50.32;97423.34;10553352;28;20035;-53
2022/11/30 16:33:26;;;;;;;6.15;4.97;;;;;;;20.27;50.74;97421.75;10538833;28;20059;-53
2022/11/30 16:38:50;;;;;;;7.03;4.72;;;;;;;20.27;50.44;97427.97;10529398;28;20056;-53
2022/11/30 16:44:12;;;;;;;8.32;5.35;;;;;;;20.27;50.45;97425.25;10538175;28;20056;-52
2022/11/30 16:49:32;;;;;;;8.85;5.25;;;;;;;20.28;50.39;97420.63;10538818;28;20052;-53
2022/11/30 16:54:51;;;;;;;8.98;5.22;;;;;;;20.27;50.55;97417.13;10538852;28;20056;-53
2022/11/30 17:00:14;;;;;;;7.72;5.00;;;;;;;20.24;50.48;97420.47;10519762;28;20060;-52
2022/11/30 17:05:34;;;;;;;6.28;4.75;;;;;;;20.24;50.64;97425.88;10485777;28;20059;-52
2022/11/30 17:10:54;;;;;;;6.50;4.65;;;;;;;20.23;50.17;97427.00;10496759;28;20063;-52
2022/11/30 17:16:13;;;;;;;7.35;5.00;;;;;;;20.23;50.47;97432.41;10497197;28;20056;-53
2022/11/30 17:21:35;;;;;;;8.00;4.93;;;;;;;20.24;50.39;97438.59;10496898;28;20052;-53
2022/11/30 17:26:55;;;;;;;6.80;4.72;;;;;;;20.22;50.10;97444.31;10496003;28;20109;-53
2022/11/30 17:32:14;;;;;;;6.25;4.90;;;;;;;20.21;49.97;97440.03;10496215;28;20048;-51
2022/11/30 17:37:34;;;;;;;7.55;4.72;;;;;;;20.21;49.91;97445.44;10495808;28;20079;-53
2022/11/30 17:42:54;;;;;;;7.82;4.93;;;;;;;20.19;49.86;97436.84;10496704;28;20048;-52
2022/11/30 17:48:14;;;;;;;6.55;4.90;;;;;;;20.17;49.91;97433.66;10504181;28;20052;-53
2022/11/30 17:53:36;;;;;;;6.60;4.85;;;;;;;20.15;49.92;97439.38;10517818;28;20480;-52
2022/11/30 17:58:56;;;;;;;11.63;9.05;;;;;;;20.11;46.38;97445.69;10508561;28;20060;-53
2022/11/30 18:04:15;;;;;;;7.88;5.68;;;;;;;20.09;48.36;97447.94;10530238;28;20177;-53
2022/11/30 18:09:35;;;;;;;7.60;5.70;;;;;;;20.10;48.78;97446.81;10545212;28;20056;-54
2022/11/30 18:14:54;;;;;;;8.05;5.78;;;;;;;20.10;49.32;97449.53;10545312;28;20055;-54
2022/11/30 18:20:14;;;;;;;9.32;6.93;;;;;;;20.10;50.31;97454.94;10544336;28;20510;-52
2022/11/30 18:25:34;;;;;;;9.65;7.15;;;;;;;20.11;51.73;97457.34;10544083;28;20479;-53
2022/11/30 18:30:53;;;;;;;12.38;7.43;;;;;;;20.11;52.16;97462.75;10542830;28;20043;-53
2022/11/30 18:36:13;;;;;;;15.40;6.50;;;;;;;20.10;52.44;97474.66;10535100;28;20105;-54
2022/11/30 18:41:32;;;;;;;11.27;6.57;;;;;;;20.08;52.70;97457.94;10543965;28;20052;-53
2022/11/30 18:46:51;;;;;;;11.10;7.05;;;;;;;20.07;53.03;97459.06;10557347;28;20066;-53
2022/11/30 18:52:11;;;;;;;9.23;6.00;;;;;;;20.07;53.01;97456.38;10557434;28;20051;-54
2022/11/30 18:57:30;;;;;;;9.88;6.38;;;;;;;20.07;53.07;97466.38;10542541;28;20044;-54
2022/11/30 19:02:50;;;;;;;8.27;6.40;;;;;;;20.05;53.08;97461.28;10542332;28;20636;-53
2022/11/30 19:08:13;;;;;;;10.85;6.40;;;;;;;20.04;53.17;97465.09;10543081;28;20403;-52
2022/11/30 19:13:33;;;;;;;11.25;6.03;;;;;;;20.04;53.17;97472.41;10542744;28;20055;-52
2022/11/30 19:18:53;;;;;;;10.35;5.93;;;;;;;20.02;53.14;97486.25;10542828;28;20048;-53
2022/11/30 19:24:14;;;;;;;9.48;5.72;;;;;;;20.02;53.28;97482.75;10546827;28;20044;-53
2022/11/30 19:29:33;;;;;;;9.02;5.68;;;;;;;20.01;53.16;97489.25;10541998;28;20052;-53
2022/11/30 19:34:53;;;;;;;8.13;5.20;;;;;;;20.00;53.21;97487.69;10541878;28;20063;-53
2022/11/30 19:40:12;;;;;;;6.55;5.10;;;;;;;19.99;52.89;97488.78;10541777;28;20048;-46
2022/11/30 19:45:34;;;;;;;8.13;5.68;;;;;;;19.98;52.67;97487.19;10529780;28;20098;-45
2022/11/30 19:50:54;;;;;;;8.27;5.22;;;;;;;19.97;52.75;97490.97;10541233;28;20056;-54
2022/11/30 19:56:15;;;;;;;10.27;5.00;;;;;;;19.95;52.42;97492.09;10540977;28;20040;-47
2022/11/30 20:01:35;;;;;;;6.55;4.65;;;;;;;19.95;52.59;97502.94;10540050;28;20052;-47
2022/11/30 20:06:55;;;;;;;6.65;4.78;;;;;;;19.93;52.80;97498.91;10553964;28;20168;-47
2022/11/30 20:12:15;;;;;;;6.30;4.47;;;;;;;19.92;52.73;97494.63;10554027;28;20442;-52
2022/11/30 20:17:34;;;;;;;5.88;4.32;;;;;;;19.91;52.79;97496.50;10553705;28;20040;-54
2022/11/30 20:22:54;;;;;;;8.80;4.90;;;;;;;19.91;52.81;97507.34;10539736;28;20052;-52
2022/11/30 20:28:16;;;;;;;8.00;5.05;;;;;;;19.89;52.98;97492.53;10531459;28;20048;-51
2022/11/30 20:33:36;;;;;;;9.85;4.97;;;;;;;19.87;52.88;97494.75;10552939;28;20039;-52
2022/11/30 20:38:57;;;;;;;6.35;4.60;;;;;;;19.87;53.13;97500.16;10539876;28;20055;-54
2022/11/30 20:44:17;;;;;;;7.63;4.95;;;;;;;19.83;52.99;97497.25;10538772;28;20696;-52
2022/11/30 20:49:37;;;;;;;8.43;5.07;;;;;;;19.82;53.07;97498.38;10533556;28;20055;-53
2022/11/30 20:54:59;;;;;;;7.05;4.80;;;;;;;19.81;53.05;97496.78;10538217;28;20533;-52
2022/11/30 21:00:18;;;;;;;5.30;4.18;;;;;;;19.80;52.76;97494.38;10530304;28;20063;-51
2022/11/30 21:05:38;;;;;;;6.60;4.50;;;;;;;19.78;52.92;97494.72;10552726;28;20047;-51
2022/11/30 21:11:05;;;;;;;5.72;4.60;;;;;;;19.76;52.81;97494.22;10538857;28;20074;-53
2022/11/30 21:16:26;;;;;;;6.13;4.43;;;;;;;19.75;52.54;97495.31;10538876;28;20059;-53
2022/11/30 21:21:46;;;;;;;6.22;4.68;;;;;;;19.74;52.47;97499.13;10537560;28;20056;-52
2022/11/30 21:27:05;;;;;;;5.10;4.15;;;;;;;19.72;52.44;97499.44;10537785;28;20101;-50
2022/11/30 21:32:25;;;;;;;5.38;4.28;;;;;;;19.70;52.50;97501.63;10538491;28;20048;-51
2022/11/30 21:37:47;;;;;;;5.28;4.30;;;;;;;19.69;52.24;97494.59;10551482;28;20054;-50
2022/11/30 21:43:07;;;;;;;6.13;4.47;;;;;;;19.66;52.29;97495.22;10537415;28;20048;-51
2022/11/30 21:48:28;;;;;;;7.05;4.50;;;;;;;19.66;52.10;97497.13;10526375;28;20048;-50
2022/11/30 21:53:51;;;;;;;4.93;4.30;;;;;;;19.65;52.28;97503.66;10537625;28;20051;-53
2022/11/30 21:59:12;;;;;;;5.90;4.40;;;;;;;19.63;52.18;97498.53;10546633;28;20060;-51
2022/11/30 22:04:35;;;;;;;5.75;4.20;;;;;;;19.63;52.37;97495.84;10550578;28;20484;-50
2022/11/30 22:09:55;;;;;;;7.47;4.50;;;;;;;19.61;52.30;97492.66;10537190;28;20052;-51
2022/11/30 22:15:14;;;;;;;4.63;4.10;;;;;;;19.59;52.60;97492.16;10537586;28;20048;-51
2022/11/30 22:20:33;;;;;;;5.80;4.40;;;;;;;19.59;52.62;97494.84;10551015;28;20044;-51
2022/11/30 22:25:56;;;;;;;9.35;4.68;;;;;;;19.59;52.68;97499.47;10551079;28;20032;-51
2022/11/30 22:31:18;;;;;;;8.35;4.90;;;;;;;19.56;52.77;97493.56;10539131;28;20059;-48
2022/11/30 22:36:38;;;;;;;7.70;5.32;;;;;;;19.55;52.78;97497.38;10557962;28;20043;-48
2022/11/30 22:41:58;;;;;;;6.22;4.60;;;;;;;19.54;52.83;97481.47;10555186;28;20511;-51
2022/11/30 22:47:17;;;;;;;5.75;4.60;;;;;;;19.53;52.78;97491.47;10544374;28;20063;-53
2022/11/30 22:52:37;;;;;;;6.28;4.85;;;;;;;19.52;52.85;97489.06;10543071;28;20376;-51
2022/11/30 22:57:56;;;;;;;7.70;4.70;;;;;;;19.51;53.03;97482.09;10528779;28;20078;-51
2022/11/30 23:03:15;;;;;;;5.97;4.75;;;;;;;19.49;52.92;97478.91;10556343;28;20040;-51
2022/11/30 23:08:35;;;;;;;5.47;4.55;;;;;;;19.48;52.82;97478.09;10544969;28;20093;-51
2022/11/30 23:13:55;;;;;;;5.95;4.55;;;;;;;19.46;52.77;97469.47;10538624;28;20502;-51
2022/11/30 23:19:14;;;;;;;7.25;4.72;;;;;;;19.44;52.71;97477.09;10542215;28;20051;-51
2022/11/30 23:24:34;;;;;;;7.28;4.45;;;;;;;19.43;52.85;97475.50;10541919;28;20056;-51
2022/11/30 23:29:53;;;;;;;6.20;4.60;;;;;;;19.42;52.78;97467.72;10541589;28;20051;-50
2022/11/30 23:35:13;;;;;;;7.40;4.82;;;;;;;19.41;52.72;97461.50;10540010;28;20105;-51
2022/11/30 23:40:32;;;;;;;5.75;4.68;;;;;;;19.39;52.76;97458.31;10534437;28;20122;-51
2022/11/30 23:45:52;;;;;;;6.22;4.38;;;;;;;19.38;52.64;97453.22;10540915;28;20101;-51
2022/11/30 23:51:11;;;;;;;5.65;4.20;;;;;;;19.37;52.53;97452.44;10540636;28;20113;-51
2022/11/30 23:56:30;;;;;;;6.88;4.70;;;;;;;19.35;52.45;97449.22;10540455;28;20044;-51
